Time;durP1;ratioP1;P1;durP2;ratioP2;P2;SDS_P1;SDS_P2;PMS_P1;PMS_P2;Temp;Humidity;BMP_temperature;BMP_pressure;BME280_temperature;BME280_humidity;BME280_pressure;Samples;Min_cycle;Max_cycle;Signal;HPM_P1;HPM_P2
2021/10/17 00:00:21;;;;;;;26.05;11.63;;;;;;;8.37;73.92;101127.71;1614106;85;25873;-78
2021/10/17 00:02:50;;;;;;;25.50;10.93;;;;;;;8.38;74.00;101127.22;1631201;85;26484;-78
2021/10/17 00:05:21;;;;;;;21.00;10.03;;;;;;;8.39;74.00;101128.87;1653693;84;27602;-79
2021/10/17 00:07:49;;;;;;;24.02;11.22;;;;;;;8.41;74.06;101128.22;1672610;84;26576;-79
2021/10/17 00:10:20;;;;;;;26.45;11.35;;;;;;;8.40;74.22;101132.71;1636197;85;25790;-78
2021/10/17 00:12:47;;;;;;;20.72;11.15;;;;;;;8.42;74.23;101135.24;1676826;84;25785;-78
2021/10/17 00:15:18;;;;;;;25.27;11.08;;;;;;;8.42;74.26;101129.91;1687538;82;25848;-79
2021/10/17 00:17:46;;;;;;;26.20;11.40;;;;;;;8.41;74.32;101133.06;1712741;82;27457;-79
2021/10/17 00:20:16;;;;;;;27.62;12.85;;;;;;;8.40;74.39;101134.57;1659992;84;25817;-78
2021/10/17 00:22:44;;;;;;;23.80;11.20;;;;;;;8.40;74.50;101134.05;1682351;83;25983;-78
2021/10/17 00:25:12;;;;;;;25.17;11.50;;;;;;;8.39;74.52;101131.55;1703074;82;26484;-79
2021/10/17 00:27:39;;;;;;;27.70;11.53;;;;;;;8.37;74.65;101124.20;1714864;82;26067;-78
2021/10/17 00:30:10;;;;;;;23.55;11.33;;;;;;;8.37;74.69;101124.20;1681298;82;28013;-78
2021/10/17 00:32:37;;;;;;;24.32;12.55;;;;;;;8.33;74.75;101122.84;1662595;82;26408;-79
2021/10/17 00:35:08;;;;;;;24.85;12.05;;;;;;;8.32;74.88;101122.00;1683220;82;25870;-78
2021/10/17 00:37:37;;;;;;;20.02;11.43;;;;;;;8.31;75.00;101125.69;1714061;82;25821;-79
2021/10/17 00:40:09;;;;;;;28.67;12.00;;;;;;;8.30;75.17;101125.33;1661060;82;26032;-78
2021/10/17 00:42:37;;;;;;;25.97;12.85;;;;;;;8.32;75.28;101122.49;1683138;83;27478;-79
2021/10/17 00:45:11;;;;;;;30.12;14.40;;;;;;;8.32;75.26;101122.00;1674967;82;25921;-78
2021/10/17 00:47:38;;;;;;;28.70;12.98;;;;;;;8.33;75.32;101125.02;1713545;83;25986;-78
2021/10/17 00:50:07;;;;;;;24.65;11.83;;;;;;;8.33;75.38;101122.36;1652836;83;26181;-79
2021/10/17 00:52:35;;;;;;;23.98;11.10;;;;;;;8.33;75.44;101123.69;1653202;84;26561;-79
2021/10/17 00:55:07;;;;;;;27.13;12.98;;;;;;;8.32;75.62;101121.16;1737088;80;28245;-79
2021/10/17 00:57:36;;;;;;;22.13;10.43;;;;;;;8.33;75.67;101114.84;1735558;80;25931;-79
2021/10/17 01:00:05;;;;;;;26.70;11.68;;;;;;;8.32;75.74;101118.00;1665395;82;26053;-79
2021/10/17 01:02:32;;;;;;;24.12;11.97;;;;;;;8.30;75.82;101118.66;1715250;80;26198;-78
2021/10/17 01:04:59;;;;;;;27.98;12.53;;;;;;;8.33;75.91;101109.02;1663330;83;26625;-79
2021/10/17 01:07:27;;;;;;;25.75;12.18;;;;;;;8.33;75.95;101117.51;1708153;83;27514;-78
2021/10/17 01:09:55;;;;;;;31.12;13.72;;;;;;;8.33;76.02;101107.67;1657177;83;25932;-78
2021/10/17 01:12:22;;;;;;;26.27;12.85;;;;;;;8.32;76.07;101107.81;1653335;83;25936;-78
2021/10/17 01:14:50;;;;;;;28.62;12.82;;;;;;;8.31;76.15;101108.83;1701331;82;25814;-78
2021/10/17 01:17:17;;;;;;;27.35;13.30;;;;;;;8.32;76.29;101111.33;1716125;80;25324;-78
2021/10/17 01:19:48;;;;;;;32.00;13.00;;;;;;;8.32;76.37;101105.98;1677547;84;28188;-78
2021/10/17 01:22:24;;;;;;;25.45;12.65;;;;;;;8.33;76.51;101108.17;1677233;83;26357;-79
2021/10/17 01:24:49;;;;;;;25.55;12.33;;;;;;;8.31;76.52;101102.16;1718719;80;25765;-78
2021/10/17 01:27:17;;;;;;;28.75;12.73;;;;;;;8.29;76.66;101100.14;1705720;83;25833;-79
2021/10/17 01:29:47;;;;;;;28.05;12.98;;;;;;;8.28;76.75;101099.30;1677330;83;26560;-78
2021/10/17 01:32:17;;;;;;;31.80;14.07;;;;;;;8.31;76.96;101104.33;1684209;84;27475;-79
2021/10/17 01:34:44;;;;;;;29.80;13.38;;;;;;;8.29;76.98;101099.66;1702346;83;26562;-78
2021/10/17 01:37:11;;;;;;;27.50;12.60;;;;;;;8.30;77.07;101093.30;1683255;83;25867;-78
2021/10/17 01:39:38;;;;;;;28.17;12.90;;;;;;;8.30;77.23;101095.13;1662753;83;26217;-78
2021/10/17 01:42:06;;;;;;;27.87;13.53;;;;;;;8.28;77.32;101088.63;1688341;83;25791;-78
2021/10/17 01:44:36;;;;;;;23.27;12.28;;;;;;;8.27;77.31;101092.80;1685892;83;27622;-78
2021/10/17 01:47:07;;;;;;;27.25;14.23;;;;;;;8.25;77.54;101084.96;1716914;83;25798;-79
2021/10/17 01:49:35;;;;;;;29.65;13.30;;;;;;;8.24;77.58;101085.91;1660165;84;25882;-79
2021/10/17 01:52:06;;;;;;;29.48;13.55;;;;;;;8.24;77.66;101088.58;1658629;83;26319;-78
2021/10/17 01:54:35;;;;;;;32.08;14.50;;;;;;;8.29;77.79;101092.98;1719890;80;26526;-79
2021/10/17 01:57:02;;;;;;;29.65;13.75;;;;;;;8.31;77.76;101086.98;1708433;83;27258;-79
2021/10/17 01:59:31;;;;;;;25.48;13.05;;;;;;;8.32;77.78;101085.97;1713241;83;25862;-78
2021/10/17 02:02:00;;;;;;;29.60;13.80;;;;;;;8.32;77.85;101083.30;1684283;83;26013;-79
2021/10/17 02:04:27;;;;;;;29.92;13.68;;;;;;;8.32;77.92;101082.45;1675113;82;25849;-79
2021/10/17 02:06:54;;;;;;;27.00;13.83;;;;;;;8.31;78.01;101084.31;1689545;83;25861;-79
2021/10/17 02:09:22;;;;;;;26.52;13.68;;;;;;;8.32;77.95;101073.11;1718213;82;28185;-78
2021/10/17 02:11:49;;;;;;;29.95;13.98;;;;;;;8.33;78.02;101075.64;1681945;83;25877;-78
2021/10/17 02:14:16;;;;;;;28.12;13.22;;;;;;;8.35;78.10;101068.80;1658975;84;25913;-78
2021/10/17 02:16:44;;;;;;;27.52;13.62;;;;;;;8.36;78.07;101073.97;1662534;83;26471;-79
2021/10/17 02:19:12;;;;;;;28.38;13.58;;;;;;;8.38;78.08;101069.30;1705838;83;25962;-78
2021/10/17 02:21:39;;;;;;;27.75;13.08;;;;;;;8.41;78.09;101076.16;1682678;83;27645;-78
2021/10/17 02:24:10;;;;;;;34.63;14.87;;;;;;;8.44;78.06;101073.19;1696083;83;25876;-78
2021/10/17 02:26:38;;;;;;;27.07;14.15;;;;;;;8.43;78.02;101080.34;1687898;83;25850;-79
2021/10/17 02:29:12;;;;;;;29.87;14.87;;;;;;;8.39;78.08;101075.48;1703903;83;26265;-78
2021/10/17 02:31:59;;;;;;;27.95;13.88;;;;;;;8.37;78.07;101070.81;1686033;83;25344;-79
2021/10/17 02:34:27;;;;;;;22.32;11.88;;;;;;;8.39;78.15;101071.48;1660964;84;27562;-79
2021/10/17 02:36:54;;;;;;;33.95;14.63;;;;;;;8.38;78.13;101067.16;1684978;83;25859;-78
2021/10/17 02:39:22;;;;;;;28.83;13.65;;;;;;;8.37;78.16;101068.98;1711531;83;25806;-80
2021/10/17 02:41:49;;;;;;;26.23;13.30;;;;;;;8.36;78.20;101065.16;1678193;84;25851;-78
2021/10/17 02:44:16;;;;;;;35.70;15.18;;;;;;;8.37;78.22;101060.98;1639366;84;26320;-79
2021/10/17 02:46:43;;;;;;;26.80;13.38;;;;;;;8.37;78.13;101066.81;1673024;83;26934;-78
2021/10/17 02:49:10;;;;;;;27.58;14.65;;;;;;;8.38;78.22;101065.30;1652312;85;25900;-78
2021/10/17 02:51:37;;;;;;;35.17;15.20;;;;;;;8.39;78.21;101060.31;1668169;84;25883;-79
2021/10/17 02:54:06;;;;;;;32.23;14.53;;;;;;;8.41;78.11;101068.16;1642357;84;26560;-79
2021/10/17 02:56:33;;;;;;;29.12;13.48;;;;;;;8.42;78.14;101070.69;1665599;84;26393;-79
2021/10/17 02:59:01;;;;;;;26.45;13.70;;;;;;;8.42;78.10;101072.51;1693013;84;28207;-78
2021/10/17 03:01:28;;;;;;;32.40;13.53;;;;;;;8.40;78.10;101063.83;1667790;84;25909;-78
2021/10/17 03:03:57;;;;;;;28.80;14.35;;;;;;;8.38;78.13;101076.50;1644187;84;25845;-78
2021/10/17 03:06:26;;;;;;;27.67;14.60;;;;;;;8.39;78.25;101076.83;1666024;84;26167;-78
2021/10/17 03:08:53;;;;;;;26.60;13.35;;;;;;;8.40;78.22;101071.84;1701924;82;25826;-78
2021/10/17 03:11:21;;;;;;;35.25;15.35;;;;;;;8.39;78.23;101070.99;1663251;84;27540;-78
2021/10/17 03:13:50;;;;;;;29.32;13.95;;;;;;;8.37;78.20;101074.81;1649883;84;26583;-78
2021/10/17 03:16:19;;;;;;;31.00;13.58;;;;;;;8.37;78.28;101067.66;1669934;84;25815;-79
2021/10/17 03:18:46;;;;;;;29.63;14.07;;;;;;;8.39;78.31;101064.81;1696668;84;25755;-78
2021/10/17 03:21:15;;;;;;;30.75;14.35;;;;;;;8.41;78.28;101072.16;1670465;84;25854;-79
2021/10/17 03:23:43;;;;;;;30.52;13.62;;;;;;;8.41;78.27;101072.16;1673862;84;27623;-79
2021/10/17 03:26:10;;;;;;;30.23;13.88;;;;;;;8.42;78.31;101073.84;1645399;84;25850;-78
2021/10/17 03:28:39;;;;;;;29.95;13.68;;;;;;;8.42;78.28;101070.69;1688677;84;26597;-78
2021/10/17 03:31:07;;;;;;;30.88;14.73;;;;;;;8.44;78.34;101061.17;1675802;84;26243;-78
2021/10/17 03:33:37;;;;;;;28.67;13.48;;;;;;;8.44;78.26;101056.67;1639447;84;25913;-79
2021/10/17 03:36:05;;;;;;;24.30;12.82;;;;;;;8.45;78.30;101061.00;1655407;86;27249;-79
2021/10/17 03:38:35;;;;;;;28.05;13.50;;;;;;;8.45;78.25;101052.14;1691096;82;26640;-78
2021/10/17 03:41:02;;;;;;;32.00;13.48;;;;;;;8.44;78.11;101063.34;1680187;81;25944;-78
2021/10/17 03:43:31;;;;;;;29.23;13.70;;;;;;;8.44;78.17;101055.83;1685386;82;26237;-78
2021/10/17 03:45:59;;;;;;;23.47;11.78;;;;;;;8.45;78.09;101060.16;1679102;83;26121;-78
2021/10/17 03:48:28;;;;;;;24.77;12.55;;;;;;;8.45;78.14;101052.98;1733775;81;27633;-79
2021/10/17 03:50:55;;;;;;;33.18;12.78;;;;;;;8.44;78.07;101058.50;1681547;83;25867;-78
2021/10/17 03:53:22;;;;;;;25.95;13.13;;;;;;;8.44;78.05;101064.69;1693749;82;26342;-78
2021/10/17 03:55:49;;;;;;;29.07;12.60;;;;;;;8.46;78.10;101057.84;1673654;83;25840;-78
2021/10/17 03:58:16;;;;;;;25.55;13.18;;;;;;;8.46;78.12;101065.84;1707138;83;26109;-78
2021/10/17 04:00:43;;;;;;;25.27;11.60;;;;;;;8.46;78.11;101066.69;1714515;80;28218;-78
2021/10/17 04:03:10;;;;;;;24.18;12.40;;;;;;;8.45;77.92;101062.33;1651928;84;26359;-78
2021/10/17 04:05:37;;;;;;;21.42;11.22;;;;;;;8.44;77.86;101063.34;1699211;80;25855;-79
2021/10/17 04:08:07;;;;;;;23.75;13.48;;;;;;;8.44;77.86;101062.02;1678342;83;26281;-78
2021/10/17 04:10:34;;;;;;;23.25;12.00;;;;;;;8.44;77.79;101055.83;1710473;82;25916;-78
2021/10/17 04:13:02;;;;;;;30.97;13.30;;;;;;;8.44;77.81;101067.35;1661830;83;27472;-78
2021/10/17 04:15:31;;;;;;;32.17;12.10;;;;;;;8.45;77.89;101059.66;1698121;83;25873;-78
2021/10/17 04:17:59;;;;;;;30.17;13.95;;;;;;;8.43;77.93;101063.48;1745309;80;26590;-79
2021/10/17 04:20:26;;;;;;;29.52;13.60;;;;;;;8.41;78.06;101058.31;1712393;82;25835;-78
2021/10/17 04:22:53;;;;;;;34.43;13.72;;;;;;;8.43;78.14;101059.48;1683272;80;25830;-79
2021/10/17 04:25:27;;;;;;;29.02;12.50;;;;;;;8.41;78.07;101058.81;1681957;83;27313;-78
2021/10/17 04:27:53;;;;;;;28.23;13.03;;;;;;;8.39;78.13;101055.47;1718390;83;26037;-78
2021/10/17 04:30:20;;;;;;;26.00;13.28;;;;;;;8.39;78.20;101060.80;1655970;83;26167;-78
2021/10/17 04:32:47;;;;;;;23.15;12.05;;;;;;;8.42;78.27;101064.50;1655194;83;26031;-78
2021/10/17 04:35:15;;;;;;;26.07;12.15;;;;;;;8.41;78.25;101056.98;1682305;83;25865;-78
2021/10/17 04:37:43;;;;;;;25.65;11.78;;;;;;;8.39;78.26;101062.98;1694241;83;46841;-78
2021/10/17 04:40:11;;;;;;;28.15;12.40;;;;;;;8.38;78.33;101060.48;1683475;83;25861;-78
2021/10/17 04:42:39;;;;;;;28.73;13.00;;;;;;;8.37;78.35;101060.13;1642381;83;25922;-79
2021/10/17 04:45:07;;;;;;;26.17;13.28;;;;;;;8.37;78.37;101060.13;1662496;83;26152;-80
2021/10/17 04:47:34;;;;;;;27.13;11.78;;;;;;;8.39;78.37;101061.66;1681804;84;25938;-78
2021/10/17 04:50:01;;;;;;;28.25;12.95;;;;;;;8.40;78.29;101059.83;1712916;83;27520;-78
2021/10/17 04:52:29;;;;;;;26.85;12.60;;;;;;;8.39;78.32;101060.80;1685455;83;26590;-78
2021/10/17 04:54:56;;;;;;;28.62;12.73;;;;;;;8.38;78.33;101058.62;1661125;82;25875;-79
2021/10/17 04:57:25;;;;;;;27.40;12.53;;;;;;;8.39;78.28;101062.14;1712566;82;25911;-78
2021/10/17 04:59:53;;;;;;;26.65;11.78;;;;;;;8.38;78.33;101057.81;1685179;83;25857;-78
2021/10/17 05:02:20;;;;;;;23.87;11.88;;;;;;;8.37;78.19;101056.12;1709804;81;27460;-78
2021/10/17 05:04:47;;;;;;;30.15;11.88;;;;;;;8.37;78.27;101056.98;1626484;84;25839;-78
2021/10/17 05:07:16;;;;;;;25.15;11.63;;;;;;;8.38;78.26;101059.16;1707022;83;25949;-79
2021/10/17 05:09:44;;;;;;;24.80;10.78;;;;;;;8.38;78.22;101060.48;1712773;83;26425;-78
2021/10/17 05:12:12;;;;;;;28.15;14.40;;;;;;;8.39;78.29;101066.98;1656583;83;25886;-78
2021/10/17 05:14:39;;;;;;;39.30;17.62;;;;;;;8.41;78.36;101065.48;1650072;84;28639;-78
2021/10/17 05:17:08;;;;;;;42.50;19.45;;;;;;;8.40;78.24;101061.97;1704619;83;26424;-78
2021/10/17 05:19:35;;;;;;;48.38;19.80;;;;;;;8.39;78.24;101065.66;1739524;80;25775;-78
2021/10/17 05:22:02;;;;;;;33.05;16.12;;;;;;;8.38;78.34;101061.82;1665619;81;25889;-78
2021/10/17 05:24:31;;;;;;;34.65;16.17;;;;;;;8.38;78.37;101057.81;1688209;82;25872;-78
2021/10/17 05:26:58;;;;;;;37.42;16.52;;;;;;;8.41;78.40;101073.49;1741755;81;27561;-79
2021/10/17 05:29:25;;;;;;;35.50;15.80;;;;;;;8.44;78.46;101057.16;1742652;81;25703;-78
2021/10/17 05:31:52;;;;;;;36.28;16.93;;;;;;;8.47;78.36;101059.49;1679664;83;25829;-78
2021/10/17 05:34:19;;;;;;;28.25;14.58;;;;;;;8.49;78.36;101061.50;1714215;83;25775;-78
2021/10/17 05:36:46;;;;;;;32.20;14.38;;;;;;;8.49;78.38;101066.34;1671360;83;25843;-78
2021/10/17 05:39:14;;;;;;;30.12;13.32;;;;;;;8.52;78.39;101071.87;1665774;82;28260;-78
2021/10/17 05:41:41;;;;;;;26.87;13.78;;;;;;;8.49;78.29;101073.02;1682330;83;25890;-78
2021/10/17 05:44:09;;;;;;;26.07;12.55;;;;;;;8.51;78.36;101076.36;1631377;83;26655;-78
2021/10/17 05:46:36;;;;;;;27.75;13.08;;;;;;;8.53;78.35;101070.36;1646885;85;26315;-78
2021/10/17 05:49:03;;;;;;;24.80;12.85;;;;;;;8.55;78.30;101073.70;1672687;83;25551;-79
2021/10/17 05:51:30;;;;;;;22.80;12.63;;;;;;;8.57;78.29;101079.40;1649705;83;27416;-78
2021/10/17 05:53:57;;;;;;;24.12;12.40;;;;;;;8.55;78.21;101082.23;1636319;83;25950;-78
2021/10/17 05:56:24;;;;;;;27.52;11.63;;;;;;;8.54;78.14;101077.88;1656712;83;26006;-79
2021/10/17 05:58:51;;;;;;;22.62;11.45;;;;;;;8.55;78.24;101084.39;1703141;83;25837;-79
2021/10/17 06:01:18;;;;;;;24.92;13.03;;;;;;;8.55;78.30;101079.56;1673614;83;26640;-79
2021/10/17 06:03:50;;;;;;;26.82;13.45;;;;;;;8.57;78.37;101078.06;1674815;83;27583;-79
2021/10/17 06:06:19;;;;;;;30.12;15.00;;;;;;;8.59;78.43;101079.58;1677968;82;25642;-79
2021/10/17 06:08:46;;;;;;;31.42;14.78;;;;;;;8.61;78.35;101082.08;1678879;83;25947;-78
2021/10/17 06:11:14;;;;;;;30.05;16.17;;;;;;;8.61;78.41;101081.58;1680051;83;26000;-78
2021/10/17 06:13:41;;;;;;;34.63;16.27;;;;;;;8.63;78.46;101086.27;1666820;83;25853;-79
2021/10/17 06:16:09;;;;;;;30.55;15.13;;;;;;;8.64;78.47;101085.25;1658563;83;28170;-78
2021/10/17 06:18:36;;;;;;;28.55;14.90;;;;;;;8.66;78.58;101089.11;1680785;83;25862;-79
2021/10/17 06:21:06;;;;;;;27.45;13.05;;;;;;;8.66;78.64;101083.77;1680437;83;25873;-78
2021/10/17 06:23:32;;;;;;;23.15;13.28;;;;;;;8.66;78.66;101084.58;1657004;83;25955;-78
2021/10/17 06:25:59;;;;;;;28.27;12.93;;;;;;;8.66;78.64;101079.77;1664611;83;25860;-78
2021/10/17 06:28:27;;;;;;;29.32;13.50;;;;;;;8.68;78.87;101081.77;1701158;83;27476;-78
2021/10/17 06:30:54;;;;;;;29.52;13.55;;;;;;;8.71;78.90;101089.44;1680468;83;25799;-78
2021/10/17 06:33:21;;;;;;;28.42;14.18;;;;;;;8.72;78.98;101089.30;1678404;83;25779;-78
2021/10/17 06:35:49;;;;;;;24.20;13.35;;;;;;;8.73;79.00;101084.77;1636436;83;26192;-78
2021/10/17 06:38:17;;;;;;;26.00;13.18;;;;;;;8.76;79.00;101087.13;1704819;83;26042;-79
2021/10/17 06:40:44;;;;;;;25.17;11.48;;;;;;;8.76;79.20;101081.78;1635380;83;27354;-78
2021/10/17 06:43:11;;;;;;;25.97;11.85;;;;;;;8.78;79.26;101085.13;1686880;82;26291;-78
2021/10/17 06:45:49;;;;;;;29.67;12.23;;;;;;;8.79;79.32;101088.96;1678272;82;25982;-78
2021/10/17 06:48:17;;;;;;;21.40;11.20;;;;;;;8.80;79.35;101083.12;1702217;83;26972;-78
2021/10/17 06:50:44;;;;;;;21.85;11.35;;;;;;;8.80;79.35;101086.64;1674243;83;25837;-78
2021/10/17 06:53:11;;;;;;;25.95;11.75;;;;;;;8.80;79.41;101080.45;1683950;83;28317;-78
2021/10/17 06:55:39;;;;;;;21.50;10.15;;;;;;;8.82;79.44;101083.30;1668103;83;25824;-78
2021/10/17 06:58:06;;;;;;;19.17;10.00;;;;;;;8.85;79.57;101084.82;1712989;82;25848;-78
2021/10/17 07:00:33;;;;;;;25.27;12.13;;;;;;;8.86;79.39;101081.98;1697902;82;25617;-78
2021/10/17 07:03:00;;;;;;;22.93;11.93;;;;;;;8.88;79.42;101087.14;1679928;83;25876;-78
2021/10/17 07:05:27;;;;;;;27.58;10.88;;;;;;;8.90;79.32;101087.81;1655497;83;27579;-78
2021/10/17 07:07:54;;;;;;;21.55;10.90;;;;;;;8.94;79.49;101091.86;1720145;82;26386;-78
2021/10/17 07:10:22;;;;;;;18.15;11.05;;;;;;;8.95;79.43;101097.03;1663780;83;26664;-79
2021/10/17 07:13:07;;;;;;;22.98;11.63;;;;;;;8.96;79.34;101097.87;1669442;83;26218;-79
2021/10/17 07:15:45;;;;;;;23.60;12.20;;;;;;;8.98;79.41;101110.05;1639661;83;26091;-79
2021/10/17 07:18:14;;;;;;;28.83;12.05;;;;;;;9.00;79.24;101103.22;1703675;83;27651;-79
2021/10/17 07:20:41;;;;;;;23.02;11.70;;;;;;;9.02;79.29;101101.22;1683596;83;25834;-78
2021/10/17 07:23:08;;;;;;;31.40;11.22;;;;;;;9.04;79.22;101109.91;1687338;83;25784;-79
2021/10/17 07:25:36;;;;;;;24.23;11.70;;;;;;;9.03;79.07;101104.20;1663327;84;25772;-79
2021/10/17 07:28:04;;;;;;;28.15;11.38;;;;;;;9.04;79.19;101112.58;1703733;83;25967;-79
2021/10/17 07:30:33;;;;;;;25.50;12.85;;;;;;;9.06;79.27;101110.08;1656952;83;28180;-79
2021/10/17 07:33:00;;;;;;;21.02;10.95;;;;;;;9.06;79.12;101116.77;1681617;82;25953;-78
2021/10/17 07:35:28;;;;;;;26.05;11.70;;;;;;;9.07;79.12;101119.75;1643486;83;25904;-78
2021/10/17 07:38:00;;;;;;;23.10;11.90;;;;;;;9.09;79.08;101119.09;1699732;82;25741;-79
2021/10/17 07:40:27;;;;;;;23.05;12.58;;;;;;;9.11;79.10;101122.95;1679423;83;25930;-78
2021/10/17 07:42:55;;;;;;;20.32;10.65;;;;;;;9.14;79.23;101120.78;1678331;83;27480;-79
2021/10/17 07:45:24;;;;;;;25.55;10.98;;;;;;;9.18;79.29;101122.61;1659182;84;26030;-78
2021/10/17 07:47:52;;;;;;;20.92;11.50;;;;;;;9.20;79.11;101130.80;1674794;84;26167;-78
2021/10/17 07:50:19;;;;;;;21.02;11.83;;;;;;;9.20;79.14;101117.44;1671860;82;25835;-78
2021/10/17 07:52:46;;;;;;;21.37;11.35;;;;;;;9.24;79.19;101116.59;1676855;84;25927;-78
2021/10/17 07:55:18;;;;;;;25.30;11.65;;;;;;;9.24;79.05;101120.11;1665562;84;27686;-78
2021/10/17 07:57:54;;;;;;;22.93;11.60;;;;;;;9.25;78.97;101120.47;1700540;83;25309;-78
2021/10/17 08:00:24;;;;;;;20.68;11.53;;;;;;;9.26;79.09;101123.45;1675505;83;25903;-78
2021/10/17 08:03:09;;;;;;;21.93;11.40;;;;;;;9.30;79.18;101126.13;1689023;83;26126;-79
2021/10/17 08:05:38;;;;;;;21.55;11.25;;;;;;;9.32;79.15;101124.65;1675103;84;25804;-79
2021/10/17 08:08:07;;;;;;;24.45;12.13;;;;;;;9.35;79.19;101129.64;1689441;83;27635;-79
2021/10/17 08:10:34;;;;;;;23.80;11.30;;;;;;;9.32;78.96;101125.98;1675789;83;26089;-78
2021/10/17 08:13:02;;;;;;;22.17;11.78;;;;;;;9.32;79.01;101130.81;1657355;84;25766;-78
2021/10/17 08:15:30;;;;;;;23.80;11.53;;;;;;;9.32;78.96;101128.66;1680444;84;25838;-78
2021/10/17 08:17:59;;;;;;;26.40;11.93;;;;;;;9.31;78.96;101128.31;1704536;83;25886;-79
2021/10/17 08:20:31;;;;;;;23.73;12.30;;;;;;;9.32;79.08;101124.65;1671535;83;28101;-78
2021/10/17 08:22:59;;;;;;;23.05;11.30;;;;;;;9.36;79.05;101125.14;1654437;84;25814;-78
2021/10/17 08:25:27;;;;;;;27.22;12.90;;;;;;;9.41;79.06;101132.17;1672857;83;26076;-78
2021/10/17 08:27:55;;;;;;;26.37;13.15;;;;;;;9.47;79.11;101128.83;1696607;83;25829;-78
2021/10/17 08:30:25;;;;;;;26.37;12.63;;;;;;;9.53;79.06;101133.50;1680652;83;25831;-78
2021/10/17 08:32:54;;;;;;;27.22;15.20;;;;;;;9.58;79.13;101131.18;1660802;83;28880;-78
2021/10/17 08:35:23;;;;;;;29.15;14.18;;;;;;;9.63;78.87;101132.33;1680793;83;25938;-78
2021/10/17 08:37:50;;;;;;;23.50;13.22;;;;;;;9.69;78.96;101138.84;1688216;83;25936;-78
2021/10/17 08:40:28;;;;;;;23.77;13.43;;;;;;;9.73;78.50;101132.18;1682514;83;25816;-78
2021/10/17 08:43:13;;;;;;;25.00;12.70;;;;;;;9.76;78.52;101129.15;1670636;82;25911;-78
2021/10/17 08:45:46;;;;;;;21.52;11.95;;;;;;;9.78;78.06;101126.64;1687727;82;28360;-79
2021/10/17 08:48:13;;;;;;;22.60;12.88;;;;;;;9.84;78.21;101130.47;1711504;82;25753;-78
2021/10/17 08:50:54;;;;;;;24.63;12.25;;;;;;;9.88;77.90;101121.13;1693305;82;26163;-78
2021/10/17 08:53:23;;;;;;;24.92;11.93;;;;;;;9.91;77.97;101116.75;1662922;84;26113;-78
2021/10/17 08:55:52;;;;;;;27.45;13.30;;;;;;;9.93;77.60;101119.60;1674022;84;26606;-78
2021/10/17 08:58:21;;;;;;;25.05;12.37;;;;;;;9.94;77.62;101121.25;1716955;82;27765;-78
2021/10/17 09:00:48;;;;;;;23.90;11.18;;;;;;;9.96;77.17;101121.11;1713376;82;25789;-78
2021/10/17 09:03:33;;;;;;;27.80;13.10;;;;;;;9.96;77.08;101125.96;1716729;82;26792;-78
2021/10/17 09:06:17;;;;;;;20.40;10.20;;;;;;;10.02;77.32;101125.28;1639174;83;25873;-78
2021/10/17 09:08:46;;;;;;;21.05;10.58;;;;;;;10.03;76.41;101121.58;1640558;84;25892;-78
2021/10/17 09:11:13;;;;;;;19.60;9.88;;;;;;;10.04;76.75;101123.27;1707028;82;28766;-78
2021/10/17 09:14:12;;;;;;;17.57;10.15;;;;;;;10.05;76.26;101122.77;1684077;82;26552;-78
2021/10/17 09:16:44;;;;;;;26.90;11.80;;;;;;;10.03;76.02;101127.42;1658711;85;25935;-78
2021/10/17 09:19:15;;;;;;;22.30;10.40;;;;;;;10.04;76.32;101134.47;1646276;84;26441;-78
2021/10/17 09:21:59;;;;;;;19.90;10.03;;;;;;;10.06;76.38;101135.13;1709178;82;25509;-78
2021/10/17 09:24:37;;;;;;;24.40;10.80;;;;;;;10.06;76.31;101130.62;1708911;82;28182;-78
2021/10/17 09:27:19;;;;;;;20.17;10.05;;;;;;;10.07;75.86;101138.97;1642471;85;26079;-78
2021/10/17 09:29:49;;;;;;;21.87;13.65;;;;;;;10.05;75.52;101135.63;1630581;85;25938;-78
2021/10/17 09:32:19;;;;;;;26.23;15.72;;;;;;;10.03;75.54;101134.12;1718147;82;25854;-78
2021/10/17 09:35:06;;;;;;;19.52;12.15;;;;;;;10.04;75.84;101140.66;1690276;82;26575;-78
2021/10/17 09:37:47;;;;;;;38.53;20.10;;;;;;;10.10;76.29;101139.13;1710652;82;27676;-78
2021/10/17 09:40:34;;;;;;;20.45;12.18;;;;;;;10.14;76.09;101135.14;1695039;82;25991;-78
2021/10/17 09:43:26;;;;;;;18.35;11.88;;;;;;;10.16;75.98;101135.80;1712331;81;25853;-78
2021/10/17 09:46:09;;;;;;;15.00;9.73;;;;;;;10.17;75.65;101133.47;1707765;83;26274;-78
2021/10/17 09:48:37;;;;;;;23.40;10.70;;;;;;;10.18;75.60;101132.97;1658671;84;25814;-78
2021/10/17 09:51:26;;;;;;;21.90;11.03;;;;;;;10.18;75.73;101144.50;1655779;84;27446;-78
2021/10/17 09:53:57;;;;;;;19.98;10.30;;;;;;;10.20;75.45;101141.14;1695277;83;26066;-79
2021/10/17 09:56:40;;;;;;;19.27;10.00;;;;;;;10.22;75.56;101138.31;1693572;83;26046;-78
2021/10/17 09:59:10;;;;;;;20.45;12.28;;;;;;;10.22;75.20;101140.50;1661430;84;26009;-78
2021/10/17 10:01:39;;;;;;;24.25;12.65;;;;;;;10.22;75.59;101136.48;1628950;84;26194;-78
2021/10/17 10:04:11;;;;;;;21.07;11.83;;;;;;;10.25;75.56;101141.47;1697150;83;27448;-78
2021/10/17 10:06:37;;;;;;;;;;;;;;;10.26;75.35;101140.98;1710869;83;25881;-78
2021/10/17 10:09:09;;;;;;;21.23;11.00;;;;;;;10.29;75.40;101136.11;1665910;84;25782;-78
2021/10/17 10:11:38;;;;;;;21.30;10.45;;;;;;;10.31;75.65;101135.95;1679454;83;25798;-78
2021/10/17 10:14:08;;;;;;;20.75;10.18;;;;;;;10.36;75.59;101136.25;1710919;83;25774;-78
2021/10/17 10:16:37;;;;;;;17.33;10.57;;;;;;;10.38;75.51;101139.09;1666945;84;28172;-79
2021/10/17 10:19:12;;;;;;;21.00;11.25;;;;;;;10.40;75.00;101136.23;1680878;84;25866;-79
2021/10/17 10:21:39;;;;;;;20.37;11.10;;;;;;;10.39;74.99;101130.04;1678617;84;26551;-78
2021/10/17 10:24:10;;;;;;;20.43;9.85;;;;;;;10.41;74.92;101126.71;1676987;84;26579;-78
2021/10/17 10:26:42;;;;;;;;;;;;;;;10.43;74.52;101126.03;1677262;83;25392;-79
2021/10/17 10:29:15;;;;;;;16.30;8.75;;;;;;;10.47;74.62;101125.17;1656623;84;28641;-78
2021/10/17 10:31:51;;;;;;;16.77;9.88;;;;;;;10.49;74.20;101124.50;1699189;83;25770;-78
2021/10/17 10:34:27;;;;;;;18.05;9.75;;;;;;;10.49;74.20;101124.50;1701240;83;25911;-78
2021/10/17 10:36:55;;;;;;;15.98;9.00;;;;;;;10.49;74.28;101125.34;1683266;83;25846;-78
2021/10/17 10:39:32;;;;;;;16.10;9.90;;;;;;;10.55;73.99;101123.80;1655515;84;25933;-79
2021/10/17 10:42:01;;;;;;;21.57;11.85;;;;;;;10.58;73.93;101122.13;1696276;83;27660;-78
2021/10/17 10:44:40;;;;;;;19.17;10.05;;;;;;;10.61;74.33;101115.90;1709618;81;25830;-79
2021/10/17 10:47:27;;;;;;;17.07;10.03;;;;;;;10.67;74.04;101112.52;1680365;83;25915;-78
2021/10/17 10:49:57;;;;;;;17.75;9.30;;;;;;;10.71;73.45;101110.34;1673724;83;25781;-78
2021/10/17 10:52:32;;;;;;;18.52;10.20;;;;;;;10.72;73.42;101106.14;1706331;83;25355;-78
2021/10/17 10:55:02;;;;;;;18.57;10.00;;;;;;;10.76;73.45;101110.63;1706858;83;28155;-78
2021/10/17 10:57:41;;;;;;;22.07;9.38;;;;;;;10.78;73.81;101109.45;1662740;84;25809;-78
2021/10/17 11:00:14;;;;;;;16.23;9.83;;;;;;;10.79;73.34;101105.78;1659356;83;26598;-78
2021/10/17 11:03:11;;;;;;;20.15;9.73;;;;;;;10.78;73.28;101100.07;1707047;83;25907;-78
2021/10/17 11:05:38;;;;;;;15.72;8.93;;;;;;;10.77;72.67;101101.10;1626397;87;26780;-78
2021/10/17 11:08:14;;;;;;;16.65;9.23;;;;;;;10.74;72.73;101096.08;1650505;83;27466;-78
2021/10/17 11:10:45;;;;;;;19.15;9.33;;;;;;;10.75;72.20;101094.24;1656650;84;26443;-78
2021/10/17 11:13:29;;;;;;;18.05;9.63;;;;;;;10.76;72.82;101093.22;1686521;84;26002;-78
2021/10/17 11:15:56;;;;;;;18.30;9.70;;;;;;;10.77;72.85;101091.72;1682732;84;25895;-78
2021/10/17 11:18:35;;;;;;;22.37;10.65;;;;;;;10.80;71.95;101093.19;1657790;83;25953;-78
2021/10/17 11:21:05;;;;;;;17.17;9.65;;;;;;;10.78;72.37;101084.00;1623528;85;27439;-78
2021/10/17 11:23:35;;;;;;;19.55;9.08;;;;;;;10.83;72.53;101088.83;1691356;84;26517;-78
2021/10/17 11:26:08;;;;;;;19.52;8.25;;;;;;;10.84;71.78;101087.83;1694235;84;26138;-78
2021/10/17 11:28:38;;;;;;;19.80;9.00;;;;;;;10.86;72.13;101079.11;1655286;84;25824;-78